Huvudsida
METAR-TAF:

METAR-TAF

Flygplatser :

Alor Setar, Malaysia

latitud: 06-11-40N, longitud: 100-24-03E, höjd: 5 m

Aktuellt väderrapport

Denna rapport gjordes för 46 minuter sedan, klockan 11:00 UTC
Stilla vind
Temperatur 29°C
Fuktighet 84%
Tryck 1009 hPa
Sikt 10 km eller mer
Få moln på en höjd av 1700 ft, Cumulonimbus.
Brutna moln på en höjd av 27000 ft

METAR: WMKA 251100Z 00000KT 9999 FEW017CB BKN270 29/26 Q1009

Tid: 19:46 (11:46 UTC)

Väderprognos

Denna rapport gjordes för 46 minuter sedan, klockan 11:00 UTC
Prognos gäller från 25 kl. 12 UTC till 26 kl. 12 UTC
Vind 2 kt varierande vindriktning
Sikt 10 km eller mer
Få moln på en höjd av 2000 ft
Spridda moln på en höjd av 14000 ft
Brutna moln på en höjd av 30000 ft
Temporärt
från 26 kl. 06 UTC till 26 kl. 11 UTC
Vind 7 kt från väst

TAF: WMKA 251100Z 2512/2612 VRB02KT 9999 FEW020 SCT140 BKN300 TEMPO 2606/2611 26007KT

Aktuella väderrapporter och prognoser från 4000 flygplatser (METAR- och TAF-rapporter).

De tillgängliga stationerna syns som gula och röda prickar på kartan.

För musen över prickarna för att se namnen på stationerna.

Klicka sedan för att få väderrapporter och prognoser.

För att ändra kartan: Klicka på de gröna knapparna med ett svart kors på för att zooma in; den gröna knappen med ett streck på för att zooma ut; eller på de gröna pilarna för angränsande kartor.


METAR-TAF: